Time;durP1;ratioP1;P1;durP2;ratioP2;P2;SDS_P1;SDS_P2;PMS_P1;PMS_P2;Temp;Humidity;BMP_temperature;BMP_pressure;BME280_temperature;BME280_humidity;BME280_pressure;Samples;Min_cycle;Max_cycle;Signal;HPM_P1;HPM_P2
2023/01/27 00:00:20;;;;;;;1999.90;999.90;;;-0.10;99.90;;;;;;5005416;28;20459;-71
2023/01/27 00:02:47;;;;;;;1999.90;999.90;;;-0.10;99.90;;;;;;5006869;28;20968;-71
2023/01/27 00:05:15;;;;;;;1999.90;999.90;;;0.00;99.90;;;;;;5010314;28;20474;-71
2023/01/27 00:07:44;;;;;;;1999.90;999.90;;;-0.10;99.90;;;;;;4995880;28;20451;-71
2023/01/27 00:10:13;;;;;;;1999.90;999.90;;;-0.10;99.90;;;;;;5007296;28;20500;-70
2023/01/27 00:15:26;;;;;;;1999.90;999.90;;;-0.10;99.90;;;;;;5008151;28;20559;-70
2023/01/27 00:17:53;;;;;;;1999.90;999.90;;;-0.10;99.90;;;;;;5006057;28;20455;-70
2023/01/27 00:24:34;;;;;;;1999.90;999.90;;;-0.10;99.90;;;;;;5008290;28;20489;-70
2023/01/27 00:26:00;;;;;;;1999.90;999.90;;;0.00;99.90;;;;;;4997262;28;20477;-70
2023/01/27 00:28:30;;;;;;;1999.90;999.90;;;-0.10;99.90;;;;;;4999029;28;20455;-71
2023/01/27 00:30:58;;;;;;;1999.90;999.90;;;-0.10;99.90;;;;;;5000372;28;20454;-71
2023/01/27 00:33:25;;;;;;;1999.90;999.90;;;-0.10;99.90;;;;;;4998132;28;20447;-71
2023/01/27 00:35:58;;;;;;;1999.90;999.90;;;-0.10;99.90;;;;;;5007121;28;20513;-70
2023/01/27 00:38:25;;;;;;;1999.90;999.90;;;-0.20;99.90;;;;;;4999812;28;20455;-71
2023/01/27 00:43:32;;;;;;;1999.90;999.90;;;-0.10;99.90;;;;;;4994627;28;20546;-71
2023/01/27 00:46:00;;;;;;;1999.90;999.90;;;-0.10;99.90;;;;;;4991240;28;20474;-71
2023/01/27 00:48:27;;;;;;;1999.90;999.90;;;-0.10;99.90;;;;;;4992394;28;20450;-70
2023/01/27 00:50:54;;;;;;;1999.90;999.90;;;-0.10;99.90;;;;;;5006096;28;20447;-71
2023/01/27 00:53:21;;;;;;;1999.90;999.90;;;-0.10;99.90;;;;;;4990316;28;20463;-70
2023/01/27 00:55:47;;;;;;;1999.90;999.90;;;-0.10;99.90;;;;;;4990537;28;20490;-70
2023/01/27 00:58:14;;;;;;;1999.90;999.90;;;-0.10;99.90;;;;;;4990386;28;20463;-70
2023/01/27 01:00:41;;;;;;;1999.90;999.90;;;-0.10;99.90;;;;;;5008915;28;20457;-71
2023/01/27 01:03:09;;;;;;;1999.90;999.90;;;-0.10;99.90;;;;;;5006251;28;20456;-70
2023/01/27 01:05:36;;;;;;;1999.90;999.90;;;-0.10;99.90;;;;;;4999982;28;20471;-70
2023/01/27 01:08:03;;;;;;;1999.90;999.90;;;-0.10;99.90;;;;;;4999065;28;20458;-71
2023/01/27 01:10:30;;;;;;;1999.90;999.90;;;-0.10;99.90;;;;;;4990355;28;20462;-70
2023/01/27 01:12:56;;;;;;;1999.90;999.90;;;-0.10;99.90;;;;;;5005964;28;20457;-70
2023/01/27 01:15:23;;;;;;;1999.90;999.90;;;0.00;99.90;;;;;;4997209;28;20483;-70
2023/01/27 01:17:50;;;;;;;1999.90;999.90;;;-0.10;99.90;;;;;;5000584;28;20458;-71
2023/01/27 01:20:18;;;;;;;1999.90;999.90;;;-0.10;99.90;;;;;;4992504;28;20455;-70
2023/01/27 01:22:45;;;;;;;1999.90;999.90;;;0.00;99.90;;;;;;5007596;28;20458;-70
2023/01/27 01:25:11;;;;;;;1999.90;999.90;;;0.00;99.90;;;;;;4992747;28;20467;-71
2023/01/27 01:27:38;;;;;;;1999.90;999.90;;;0.10;99.90;;;;;;5004892;28;20457;-71
2023/01/27 01:30:06;;;;;;;1999.90;999.90;;;0.10;99.90;;;;;;5005949;28;20455;-70
2023/01/27 01:32:33;;;;;;;1999.90;999.90;;;0.10;99.90;;;;;;4989953;28;20451;-70
2023/01/27 01:34:59;;;;;;;1999.90;999.90;;;0.10;99.90;;;;;;4994099;28;20490;-70
2023/01/27 01:37:27;;;;;;;1999.90;999.90;;;0.20;99.90;;;;;;5005314;28;20454;-71
2023/01/27 01:39:54;;;;;;;1999.90;999.90;;;0.30;99.90;;;;;;5009306;28;20462;-71
2023/01/27 01:42:21;;;;;;;1999.90;999.90;;;0.30;99.90;;;;;;5001407;28;20446;-70
2023/01/27 01:44:51;;;;;;;1999.90;999.90;;;0.30;99.90;;;;;;5002758;28;20497;-71
2023/01/27 01:47:19;;;;;;;1999.90;999.90;;;0.30;99.90;;;;;;4991452;28;20450;-70
2023/01/27 01:49:47;;;;;;;1999.90;999.90;;;0.30;99.90;;;;;;4995408;28;20450;-70
2023/01/27 01:52:20;;;;;;;1999.90;999.90;;;0.40;99.90;;;;;;5007743;28;20808;-70
2023/01/27 01:54:51;;;;;;;1999.90;999.90;;;0.30;99.90;;;;;;5005754;28;20597;-71
2023/01/27 01:57:21;;;;;;;1999.90;999.90;;;0.40;99.90;;;;;;4998342;28;20457;-70
2023/01/27 01:59:53;;;;;;;1999.90;999.90;;;0.40;99.90;;;;;;4996900;28;20459;-70
2023/01/27 02:02:23;;;;;;;1999.90;999.90;;;0.50;99.90;;;;;;5010190;28;20449;-71
2023/01/27 02:04:56;;;;;;;1999.90;999.90;;;0.50;99.90;;;;;;5001237;28;20554;-71
2023/01/27 02:07:27;;;;;;;1999.90;999.90;;;0.40;99.90;;;;;;4999077;28;20455;-70
2023/01/27 02:09:58;;;;;;;1999.90;999.90;;;0.40;99.90;;;;;;5000104;28;20450;-71
2023/01/27 02:12:25;;;;;;;1999.90;999.90;;;0.40;99.90;;;;;;5003366;28;20494;-69
2023/01/27 02:14:51;;;;;;;1999.90;999.90;;;0.40;99.90;;;;;;5009312;28;20482;-71
2023/01/27 02:17:18;;;;;;;1999.90;999.90;;;0.40;99.90;;;;;;4993135;28;20454;-70
2023/01/27 02:19:53;;;;;;;1999.90;999.90;;;0.40;99.90;;;;;;5009466;28;20442;-70
2023/01/27 02:22:28;;;;;;;1999.90;999.90;;;0.40;99.90;;;;;;4999561;28;20450;-70
2023/01/27 02:25:06;;;;;;;1999.90;999.90;;;0.40;99.90;;;;;;4989993;28;20533;-70
2023/01/27 02:27:34;;;;;;;1999.90;999.90;;;0.40;99.90;;;;;;4994026;28;20449;-70
2023/01/27 02:30:00;;;;;;;1999.90;999.90;;;0.40;99.90;;;;;;5008772;28;20449;-70
2023/01/27 02:32:28;;;;;;;1999.90;999.90;;;0.40;99.90;;;;;;5009295;28;20458;-71
2023/01/27 02:34:56;;;;;;;1999.90;999.90;;;0.40;99.90;;;;;;4989852;28;20490;-71
2023/01/27 02:37:24;;;;;;;1999.90;999.90;;;0.40;99.90;;;;;;4992262;28;20956;-69
2023/01/27 02:39:51;;;;;;;1999.90;999.90;;;0.40;99.90;;;;;;4993260;28;20454;-71
2023/01/27 02:42:19;;;;;;;1999.90;999.90;;;0.40;99.90;;;;;;5001819;28;20870;-71
2023/01/27 02:44:47;;;;;;;1999.90;999.90;;;0.40;99.90;;;;;;5000438;28;20466;-71
2023/01/27 02:47:14;;;;;;;1999.90;999.90;;;0.40;99.90;;;;;;4993178;28;20451;-71
2023/01/27 02:49:40;;;;;;;1999.90;999.90;;;0.40;99.90;;;;;;4997833;28;20537;-71
2023/01/27 02:52:07;;;;;;;1999.90;999.90;;;0.40;99.90;;;;;;4999081;28;20450;-71
2023/01/27 02:54:34;;;;;;;1999.90;999.90;;;0.40;99.90;;;;;;5003298;28;20469;-71
2023/01/27 02:57:01;;;;;;;1999.90;999.90;;;0.40;99.90;;;;;;4998088;28;20462;-70
2023/01/27 02:59:27;;;;;;;1999.90;999.90;;;0.50;99.90;;;;;;5008534;28;20449;-71
2023/01/27 03:01:56;;;;;;;1999.90;999.90;;;0.40;99.90;;;;;;4994657;28;20454;-70
2023/01/27 03:04:22;;;;;;;1999.90;999.90;;;0.40;99.90;;;;;;4998930;28;20469;-70
2023/01/27 03:06:49;;;;;;;1999.90;999.90;;;0.50;99.90;;;;;;5011715;28;20449;-70
2023/01/27 03:09:16;;;;;;;1999.90;999.90;;;0.40;99.90;;;;;;4998629;28;20457;-70
2023/01/27 03:19:56;;;;;;;1999.90;999.90;;;0.40;99.90;;;;;;4992375;28;20952;-71
2023/01/27 03:22:23;;;;;;;1999.90;999.90;;;0.40;99.90;;;;;;4996666;28;20830;-71
2023/01/27 03:24:50;;;;;;;1999.90;999.90;;;0.40;99.90;;;;;;5003102;28;20465;-70
2023/01/27 03:27:17;;;;;;;1999.90;999.90;;;0.40;99.90;;;;;;5009967;28;20468;-71
2023/01/27 03:29:56;;;;;;;1999.90;999.90;;;0.40;99.90;;;;;;5000608;28;20450;-71
2023/01/27 03:32:26;;;;;;;1999.90;999.90;;;0.40;99.90;;;;;;4992158;28;20783;-71
2023/01/27 03:34:56;;;;;;;1999.90;999.90;;;0.30;99.90;;;;;;5011330;28;20462;-71
2023/01/27 03:48:24;;;;;;;1999.90;999.90;;;0.30;99.90;;;;;;5000128;28;20525;-70
2023/01/27 03:50:52;;;;;;;1999.90;999.90;;;0.30;99.90;;;;;;4998685;28;20451;-70
2023/01/27 03:53:19;;;;;;;1999.90;999.90;;;0.20;99.90;;;;;;4991739;28;20498;-70
2023/01/27 03:55:46;;;;;;;1999.90;999.90;;;0.20;99.90;;;;;;5002739;28;20833;-70
2023/01/27 03:58:19;;;;;;;1999.90;999.90;;;0.20;99.90;;;;;;5011351;28;20840;-71
2023/01/27 04:00:49;;;;;;;1999.90;999.90;;;0.30;99.90;;;;;;4999622;28;20457;-72
2023/01/27 04:08:49;;;;;;;1999.90;999.90;;;0.10;99.90;;;;;;4999767;28;20437;-71
2023/01/27 04:14:04;;;;;;;1999.90;999.90;;;0.20;99.90;;;;;;5009019;28;20457;-70
2023/01/27 04:16:31;;;;;;;1999.90;999.90;;;0.20;99.90;;;;;;5000006;28;20533;-71
2023/01/27 04:18:58;;;;;;;1999.90;999.90;;;0.20;99.90;;;;;;5009843;28;20449;-69
2023/01/27 04:21:26;;;;;;;1999.90;999.90;;;0.30;99.90;;;;;;5010810;28;20472;-70
2023/01/27 04:23:53;;;;;;;1999.90;999.90;;;0.30;99.90;;;;;;5007945;28;20454;-72
2023/01/27 04:26:21;;;;;;;1999.90;999.90;;;0.30;99.90;;;;;;5010767;28;20446;-71
2023/01/27 04:28:48;;;;;;;1999.90;999.90;;;0.30;99.90;;;;;;5011362;28;20453;-70
2023/01/27 04:31:16;;;;;;;1999.90;999.90;;;0.30;99.90;;;;;;5001868;28;20451;-70
2023/01/27 04:33:43;;;;;;;1999.90;999.90;;;0.30;99.90;;;;;;5010434;28;20456;-70
2023/01/27 04:36:10;;;;;;;1999.90;999.90;;;0.20;99.90;;;;;;5004088;28;20488;-71
2023/01/27 04:38:38;;;;;;;1999.90;999.90;;;0.20;99.90;;;;;;4999901;28;20445;-70
2023/01/27 04:41:05;;;;;;;1999.90;999.90;;;0.20;99.90;;;;;;4998214;28;20473;-70
2023/01/27 04:43:32;;;;;;;1999.90;999.90;;;0.20;99.90;;;;;;5002340;28;20458;-70
2023/01/27 04:45:59;;;;;;;1999.90;999.90;;;0.20;99.90;;;;;;4994809;28;20470;-70
2023/01/27 04:48:25;;;;;;;1999.90;999.90;;;0.10;99.90;;;;;;4990531;28;20458;-71
2023/01/27 04:50:52;;;;;;;1999.90;999.90;;;0.10;99.90;;;;;;5001437;28;20454;-71
2023/01/27 04:53:19;;;;;;;1999.90;999.90;;;0.00;99.90;;;;;;5000589;28;20841;-71
2023/01/27 04:55:49;;;;;;;1999.90;999.90;;;0.10;99.90;;;;;;4996420;28;20979;-70
2023/01/27 04:58:17;;;;;;;1999.90;999.90;;;0.10;99.90;;;;;;4996301;28;20455;-70
2023/01/27 05:00:44;;;;;;;1999.90;999.90;;;0.20;99.90;;;;;;4990731;28;20454;-71
2023/01/27 05:03:11;;;;;;;1999.90;999.90;;;0.20;99.90;;;;;;5000850;28;20726;-71
2023/01/27 05:05:38;;;;;;;1999.90;999.90;;;0.20;99.90;;;;;;4997419;28;20469;-70
2023/01/27 05:08:06;;;;;;;1999.90;999.90;;;0.20;99.90;;;;;;4990945;28;20439;-70
2023/01/27 05:10:36;;;;;;;1999.90;999.90;;;0.20;99.90;;;;;;4993519;28;21032;-70
2023/01/27 05:13:04;;;;;;;1999.90;999.90;;;0.20;99.90;;;;;;4989771;28;20458;-71
2023/01/27 05:15:31;;;;;;;1999.90;999.90;;;0.20;99.90;;;;;;5006706;28;20488;-71
2023/01/27 05:17:57;;;;;;;1999.90;999.90;;;0.20;99.90;;;;;;5002072;28;20455;-70
2023/01/27 05:20:24;;;;;;;1999.90;999.90;;;0.20;99.90;;;;;;5005700;28;20457;-70
2023/01/27 05:23:33;;;;;;;1999.90;999.90;;;0.20;99.90;;;;;;4998860;28;20992;-71
2023/01/27 05:25:40;;;;;;;1999.90;999.90;;;0.20;99.90;;;;;;4989646;28;20466;-70
2023/01/27 05:28:08;;;;;;;1999.90;999.90;;;0.30;99.90;;;;;;4989929;28;20443;-69
2023/01/27 05:30:35;;;;;;;1999.90;999.90;;;0.30;99.90;;;;;;4998283;28;20446;-69
2023/01/27 05:33:02;;;;;;;1999.90;999.90;;;0.30;99.90;;;;;;4989956;28;20998;-70
2023/01/27 05:35:31;;;;;;;1999.90;999.90;;;0.20;99.90;;;;;;4989916;28;20474;-69
2023/01/27 05:37:58;;;;;;;1999.90;999.90;;;0.20;99.90;;;;;;4995972;28;20453;-70
2023/01/27 05:40:25;;;;;;;1999.90;999.90;;;0.20;99.90;;;;;;5002645;28;20460;-71
2023/01/27 05:42:52;;;;;;;1999.90;999.90;;;0.20;99.90;;;;;;5005970;28;20451;-71
2023/01/27 05:45:20;;;;;;;1999.90;999.90;;;0.20;99.90;;;;;;4991352;28;20479;-71
2023/01/27 05:47:49;;;;;;;1999.90;999.90;;;0.20;99.90;;;;;;4990191;28;20490;-72
2023/01/27 05:50:17;;;;;;;1999.90;999.90;;;0.20;99.90;;;;;;4995496;28;20455;-70
2023/01/27 05:52:43;;;;;;;1999.90;999.90;;;0.20;99.90;;;;;;4989647;28;20482;-71
2023/01/27 05:55:10;;;;;;;1999.90;999.90;;;0.20;99.90;;;;;;4991350;28;20939;-71
2023/01/27 05:57:37;;;;;;;1999.90;999.90;;;0.20;99.90;;;;;;4991211;28;20527;-72
2023/01/27 06:00:04;;;;;;;1999.90;999.90;;;0.20;99.90;;;;;;4996076;28;20468;-71
2023/01/27 06:02:33;;;;;;;1999.90;999.90;;;0.10;99.90;;;;;;5001724;28;20458;-70
2023/01/27 06:04:59;;;;;;;1999.90;999.90;;;0.20;99.90;;;;;;5004430;28;20541;-69
2023/01/27 06:07:26;;;;;;;1999.90;999.90;;;0.20;99.90;;;;;;4999256;28;20434;-70
2023/01/27 06:09:53;;;;;;;1999.90;999.90;;;0.10;99.90;;;;;;5000054;28;20470;-70
2023/01/27 06:12:19;;;;;;;1999.90;999.90;;;0.20;99.90;;;;;;5007284;28;20458;-70
2023/01/27 06:14:46;;;;;;;1999.90;999.90;;;0.10;99.90;;;;;;5011789;28;20473;-69
2023/01/27 06:17:13;;;;;;;1999.90;999.90;;;0.20;99.90;;;;;;5008115;28;20504;-70
2023/01/27 06:19:41;;;;;;;1999.90;999.90;;;0.20;99.90;;;;;;5012492;28;20453;-67
2023/01/27 06:22:08;;;;;;;1999.90;999.90;;;0.10;99.90;;;;;;5013124;28;20449;-68
2023/01/27 06:24:35;;;;;;;1999.90;999.90;;;0.20;99.90;;;;;;5010989;28;20492;-68
2023/01/27 06:27:01;;;;;;;1999.90;999.90;;;0.20;99.90;;;;;;5013236;28;20450;-68
2023/01/27 06:29:28;;;;;;;1999.90;999.90;;;0.20;99.90;;;;;;5012905;28;20449;-69
2023/01/27 06:31:55;;;;;;;1999.90;999.90;;;0.20;99.90;;;;;;5013040;28;20450;-71
2023/01/27 06:34:22;;;;;;;1999.90;999.90;;;0.20;99.90;;;;;;5012454;28;21045;-64
2023/01/27 06:36:52;;;;;;;1999.90;999.90;;;0.20;99.90;;;;;;4999941;28;20512;-66
2023/01/27 06:39:19;;;;;;;1999.90;999.90;;;0.20;99.90;;;;;;5013093;28;20450;-68
2023/01/27 06:41:45;;;;;;;1999.90;999.90;;;0.20;99.90;;;;;;5012605;28;21011;-69
2023/01/27 06:44:12;;;;;;;1999.90;999.90;;;0.20;99.90;;;;;;5005533;28;20485;-69
2023/01/27 06:46:39;;;;;;;1999.90;999.90;;;0.30;99.90;;;;;;5010453;28;20442;-69
2023/01/27 06:49:06;;;;;;;1999.90;999.90;;;0.30;99.90;;;;;;5012487;28;20453;-69
2023/01/27 06:51:32;;;;;;;1999.90;999.90;;;0.30;99.90;;;;;;5011900;28;20446;-70
2023/01/27 06:54:01;;;;;;;1999.90;999.90;;;0.30;99.90;;;;;;5012005;28;20481;-69
2023/01/27 06:56:27;;;;;;;1999.90;999.90;;;0.30;99.90;;;;;;5012377;28;20858;-68
2023/01/27 06:58:54;;;;;;;1999.90;999.90;;;0.30;99.90;;;;;;5012419;28;20833;-68
2023/01/27 07:01:21;;;;;;;1999.90;999.90;;;0.30;99.90;;;;;;5012271;28;20450;-71
2023/01/27 07:03:48;;;;;;;1999.90;999.90;;;0.30;99.90;;;;;;5011970;28;20457;-68
2023/01/27 07:06:17;;;;;;;1999.90;999.90;;;0.20;99.90;;;;;;5012093;28;21022;-70
2023/01/27 07:08:46;;;;;;;1999.90;999.90;;;0.20;99.90;;;;;;5012280;28;20489;-68
2023/01/27 07:11:14;;;;;;;1999.90;999.90;;;0.20;99.90;;;;;;5012183;28;20465;-69
2023/01/27 07:13:41;;;;;;;1999.90;999.90;;;0.20;99.90;;;;;;5011667;28;20456;-70
2023/01/27 07:16:08;;;;;;;1999.90;999.90;;;0.20;99.90;;;;;;5011966;28;20481;-70
2023/01/27 07:18:34;;;;;;;1999.90;999.90;;;0.30;99.90;;;;;;5012104;28;20460;-70
2023/01/27 07:21:03;;;;;;;1999.90;999.90;;;0.30;99.90;;;;;;5012044;28;20453;-70
2023/01/27 07:23:30;;;;;;;1999.90;999.90;;;0.20;99.90;;;;;;5010541;28;20452;-69
2023/01/27 07:25:57;;;;;;;1999.90;999.90;;;0.20;99.90;;;;;;5012083;28;20461;-70
2023/01/27 07:28:25;;;;;;;1999.90;999.90;;;0.20;99.90;;;;;;5011819;28;20446;-70
2023/01/27 07:30:52;;;;;;;1999.90;999.90;;;0.20;99.90;;;;;;5011795;28;20466;-70
2023/01/27 07:33:19;;;;;;;1999.90;999.90;;;0.30;99.90;;;;;;5011632;28;20923;-70
2023/01/27 07:35:48;;;;;;;1999.90;999.90;;;0.30;99.90;;;;;;5011471;28;21024;-70
2023/01/27 07:38:15;;;;;;;1999.90;999.90;;;0.30;99.90;;;;;;5011714;28;20481;-70
2023/01/27 07:40:42;;;;;;;1999.90;999.90;;;0.40;99.90;;;;;;5011474;28;20853;-70
2023/01/27 07:43:11;;;;;;;1999.90;999.90;;;0.40;99.90;;;;;;5011181;28;21053;-70
2023/01/27 07:45:39;;;;;;;1999.90;999.90;;;0.30;99.90;;;;;;5011618;28;21058;-69
2023/01/27 07:48:08;;;;;;;1999.90;999.90;;;0.30;99.90;;;;;;5011693;28;20442;-70
2023/01/27 07:50:35;;;;;;;1999.90;999.90;;;0.30;99.90;;;;;;5011368;28;20848;-70
2023/01/27 07:53:04;;;;;;;1999.90;999.90;;;0.30;99.90;;;;;;5012982;28;20461;-69
2023/01/27 07:55:32;;;;;;;1999.90;999.90;;;0.30;99.90;;;;;;5029087;28;20473;-69
2023/01/27 07:57:59;;;;;;;1999.90;999.90;;;0.30;99.90;;;;;;5029546;28;20484;-70
2023/01/27 08:00:27;;;;;;;1999.90;999.90;;;0.20;99.90;;;;;;5030899;28;20840;-70
2023/01/27 08:02:56;;;;;;;1999.90;999.90;;;0.30;99.90;;;;;;5030312;28;20453;-69
2023/01/27 08:05:24;;;;;;;1999.90;999.90;;;0.30;99.90;;;;;;5030636;28;20479;-69
2023/01/27 08:07:51;;;;;;;1999.90;999.90;;;0.30;99.90;;;;;;5030434;28;20499;-70
2023/01/27 08:10:18;;;;;;;1999.90;999.90;;;0.30;99.90;;;;;;5030846;28;20449;-69
2023/01/27 08:12:46;;;;;;;1999.90;999.90;;;0.30;99.90;;;;;;5030249;28;20911;-69
2023/01/27 08:15:12;;;;;;;1999.90;999.90;;;0.30;99.90;;;;;;5030762;28;20477;-71
2023/01/27 08:17:39;;;;;;;1999.90;999.90;;;0.30;99.90;;;;;;5031725;28;20570;-71
2023/01/27 08:20:10;;;;;;;1999.90;999.90;;;0.30;99.90;;;;;;5030785;28;20871;-70
2023/01/27 08:22:37;;;;;;;1999.90;999.90;;;0.30;99.90;;;;;;5029668;28;21036;-70
2023/01/27 08:25:04;;;;;;;1999.90;999.90;;;0.30;99.90;;;;;;5030211;28;20871;-69
2023/01/27 08:27:31;;;;;;;1999.90;999.90;;;0.30;99.90;;;;;;5029869;28;20445;-70
2023/01/27 08:29:58;;;;;;;1999.90;999.90;;;0.30;99.90;;;;;;5030280;28;20448;-69
2023/01/27 08:32:25;;;;;;;1999.90;999.90;;;0.30;99.90;;;;;;5029824;28;20817;-69
2023/01/27 08:34:51;;;;;;;1999.90;999.90;;;0.30;99.90;;;;;;4997411;28;21011;-69
2023/01/27 08:37:19;;;;;;;1999.90;999.90;;;0.30;99.90;;;;;;5008955;28;20600;-70
2023/01/27 08:39:46;;;;;;;1999.90;999.90;;;0.30;99.90;;;;;;5005580;28;20450;-70
2023/01/27 08:42:13;;;;;;;1999.90;999.90;;;0.30;99.90;;;;;;5010137;28;20460;-69
2023/01/27 08:44:40;;;;;;;1999.90;999.90;;;0.40;99.90;;;;;;5009701;28;20496;-70
2023/01/27 08:47:06;;;;;;;1999.90;999.90;;;0.30;99.90;;;;;;4993728;28;20442;-70
2023/01/27 08:49:33;;;;;;;1999.90;999.90;;;0.40;99.90;;;;;;5004201;28;20454;-70
2023/01/27 08:52:00;;;;;;;1999.90;999.90;;;0.40;99.90;;;;;;4999916;28;20445;-70
2023/01/27 08:54:28;;;;;;;1999.90;999.90;;;0.40;99.90;;;;;;5009801;28;20494;-70
2023/01/27 08:56:55;;;;;;;1999.90;999.90;;;0.40;99.90;;;;;;4993580;28;20479;-69
2023/01/27 08:59:22;;;;;;;1999.90;999.90;;;0.40;99.90;;;;;;5005692;28;20832;-70
2023/01/27 09:01:48;;;;;;;1999.90;999.90;;;0.50;99.90;;;;;;4997922;28;20452;-70
2023/01/27 09:04:15;;;;;;;1999.90;999.90;;;0.60;99.90;;;;;;4997942;28;20470;-70
2023/01/27 09:06:42;;;;;;;1999.90;999.90;;;0.80;99.90;;;;;;5005228;28;20444;-70
2023/01/27 09:09:09;;;;;;;1999.90;999.90;;;0.90;99.90;;;;;;4993444;28;20454;-70
2023/01/27 09:11:39;;;;;;;1999.90;999.90;;;1.00;99.90;;;;;;5003537;28;20457;-70
2023/01/27 09:14:07;;;;;;;1999.90;999.90;;;1.00;99.90;;;;;;4999913;28;20891;-70
2023/01/27 09:16:34;;;;;;;1999.90;999.90;;;1.00;99.90;;;;;;4998613;28;20450;-70
2023/01/27 09:19:01;;;;;;;1999.90;999.90;;;1.10;99.90;;;;;;4999622;28;20461;-71
2023/01/27 09:21:28;;;;;;;1999.90;999.90;;;1.10;99.90;;;;;;4998096;28;20461;-70
2023/01/27 09:23:55;;;;;;;1999.90;999.90;;;1.10;99.90;;;;;;4999601;28;20438;-70
2023/01/27 09:26:22;;;;;;;1999.90;999.90;;;0.90;99.90;;;;;;4997386;28;20447;-70
2023/01/27 09:28:50;;;;;;;1999.90;999.90;;;0.80;99.90;;;;;;5000152;28;20437;-69
2023/01/27 09:31:17;;;;;;;1999.90;999.90;;;0.80;99.90;;;;;;5000567;28;20442;-69
2023/01/27 09:33:44;;;;;;;1999.90;999.90;;;0.70;99.90;;;;;;4997965;28;20537;-69
2023/01/27 09:36:14;;;;;;;1999.90;999.90;;;0.70;99.90;;;;;;4999853;28;20434;-70
2023/01/27 09:38:46;;;;;;;1999.90;999.90;;;0.70;99.90;;;;;;4999070;28;21126;-69
2023/01/27 09:41:36;;;;;;;1999.90;999.90;;;0.80;99.90;;;;;;4999808;28;20452;-69
2023/01/27 09:44:27;;;;;;;1999.90;999.90;;;0.90;99.90;;;;;;4993893;28;20482;-70
2023/01/27 09:47:10;;;;;;;1999.90;999.90;;;1.00;99.90;;;;;;4998895;28;21031;-70
2023/01/27 09:49:56;;;;;;;1999.90;999.90;;;1.10;99.90;;;;;;5000932;28;20446;-68
2023/01/27 09:52:37;;;;;;;1999.90;999.90;;;1.10;99.90;;;;;;5000091;28;20441;-70
2023/01/27 09:55:13;;;;;;;1999.90;999.90;;;1.10;99.90;;;;;;5000220;28;20469;-70
2023/01/27 09:57:47;;;;;;;1999.90;999.90;;;1.20;99.90;;;;;;5002834;28;20504;-70
2023/01/27 10:00:30;;;;;;;1999.90;999.90;;;1.30;99.90;;;;;;5002096;28;20446;-71
2023/01/27 10:03:11;;;;;;;1999.90;999.90;;;1.30;99.90;;;;;;5000816;28;20446;-70
2023/01/27 10:06:05;;;;;;;1999.90;999.90;;;1.40;99.90;;;;;;5000566;28;20461;-71
2023/01/27 10:08:57;;;;;;;1999.90;999.90;;;1.50;99.90;;;;;;4996266;28;20442;-70
2023/01/27 10:11:31;;;;;;;1999.90;999.90;;;1.60;99.90;;;;;;5002537;28;20449;-70
2023/01/27 10:14:11;;;;;;;1999.90;999.90;;;1.60;99.90;;;;;;4998696;28;20447;-70
2023/01/27 10:17:01;;;;;;;1999.90;999.90;;;1.60;99.90;;;;;;4999732;28;20449;-70
2023/01/27 10:19:42;;;;;;;1999.90;999.90;;;1.70;99.90;;;;;;4999908;28;20443;-70
2023/01/27 10:22:19;;;;;;;1999.90;999.90;;;1.70;99.90;;;;;;4997760;28;20493;-70
2023/01/27 10:24:58;;;;;;;1999.90;999.90;;;1.70;99.90;;;;;;4997508;28;20468;-68
2023/01/27 10:27:26;;;;;;;1999.90;999.90;;;1.70;99.90;;;;;;4999901;28;20429;-68
2023/01/27 10:29:58;;;;;;;1999.90;999.90;;;1.70;99.90;;;;;;4999733;28;20445;-70
2023/01/27 10:32:30;;;;;;;1999.90;999.90;;;1.90;99.90;;;;;;5006570;28;20457;-68
2023/01/27 10:35:08;;;;;;;1999.90;999.90;;;1.90;99.90;;;;;;5004936;28;20455;-70
2023/01/27 10:37:47;;;;;;;1999.90;999.90;;;1.90;99.90;;;;;;5008500;28;20535;-68
2023/01/27 10:40:20;;;;;;;1999.90;999.90;;;2.00;99.90;;;;;;4994027;28;20477;-70
2023/01/27 10:42:55;;;;;;;1999.90;999.90;;;2.00;99.90;;;;;;5004747;28;20447;-68
2023/01/27 10:45:30;;;;;;;1999.90;999.90;;;1.90;99.90;;;;;;4998739;28;20890;-69
2023/01/27 10:48:16;;;;;;;1999.90;999.90;;;1.80;99.90;;;;;;4996185;28;20439;-69
2023/01/27 10:50:45;;;;;;;1999.90;999.90;;;1.70;99.90;;;;;;5004681;28;20457;-70
2023/01/27 10:53:17;;;;;;;1999.90;999.90;;;1.60;99.90;;;;;;4990835;28;20443;-69
2023/01/27 10:55:52;;;;;;;1999.90;999.90;;;1.50;99.90;;;;;;4996384;28;20478;-70
2023/01/27 10:58:27;;;;;;;1999.90;999.90;;;1.40;99.90;;;;;;5003319;28;21037;-69
2023/01/27 11:00:56;;;;;;;1999.90;999.90;;;1.40;99.90;;;;;;5003959;28;20452;-70
2023/01/27 11:03:29;;;;;;;1999.90;999.90;;;1.40;99.90;;;;;;5000194;28;20450;-69
2023/01/27 11:06:01;;;;;;;1999.90;999.90;;;1.40;99.90;;;;;;4993816;28;20477;-69
2023/01/27 11:08:32;;;;;;;1999.90;999.90;;;1.40;99.90;;;;;;5004307;28;20966;-68
2023/01/27 11:13:46;;;;;;;1999.90;999.90;;;1.50;99.90;;;;;;4994944;28;20429;-69
2023/01/27 11:16:16;;;;;;;1999.90;999.90;;;1.40;99.90;;;;;;5004319;28;20458;-69
2023/01/27 11:18:46;;;;;;;1999.90;999.90;;;1.50;99.90;;;;;;4994130;28;20486;-69
2023/01/27 11:21:18;;;;;;;1999.90;999.90;;;1.60;99.90;;;;;;5004917;28;21006;-69
2023/01/27 11:23:50;;;;;;;1999.90;999.90;;;1.60;99.90;;;;;;4994518;28;20825;-70
2023/01/27 11:26:27;;;;;;;1999.90;999.90;;;1.70;99.90;;;;;;5005563;28;21235;-69
2023/01/27 11:29:02;;;;;;;1999.90;999.90;;;1.80;99.90;;;;;;5002299;28;20893;-69
2023/01/27 11:31:37;;;;;;;1999.90;999.90;;;2.00;99.90;;;;;;5002479;28;20470;-69
2023/01/27 11:34:10;;;;;;;1999.90;999.90;;;1.90;99.90;;;;;;5011053;28;20575;-69
2023/01/27 11:36:37;;;;;;;1999.90;999.90;;;1.90;99.90;;;;;;5010583;28;20445;-69
2023/01/27 11:39:05;;;;;;;1999.90;999.90;;;1.90;99.90;;;;;;5011458;28;20489;-69
2023/01/27 11:41:34;;;;;;;1999.90;999.90;;;2.10;99.90;;;;;;4995532;28;20446;-70
2023/01/27 11:44:06;;;;;;;1999.90;999.90;;;2.30;99.90;;;;;;4994884;28;20466;-70
2023/01/27 11:46:34;;;;;;;1999.90;999.90;;;2.60;99.90;;;;;;5002858;28;20965;-70
2023/01/27 11:49:02;;;;;;;1999.90;999.90;;;2.80;99.90;;;;;;5002891;28;20454;-70
2023/01/27 11:51:37;;;;;;;1999.90;999.90;;;2.70;99.90;;;;;;4995733;28;21239;-69
2023/01/27 11:54:14;;;;;;;1999.90;999.90;;;2.60;99.90;;;;;;4995050;28;20469;-69
2023/01/27 11:56:45;;;;;;;1999.90;999.90;;;2.70;99.90;;;;;;5003888;28;20451;-70
2023/01/27 11:59:17;;;;;;;1999.90;999.90;;;2.90;99.90;;;;;;5006382;28;20501;-70
2023/01/27 12:01:48;;;;;;;1999.90;999.90;;;2.90;99.90;;;;;;4994834;28;20470;-70
2023/01/27 12:04:21;;;;;;;1999.90;999.90;;;2.80;99.90;;;;;;5005035;28;20494;-69
2023/01/27 12:06:54;;;;;;;1999.90;999.90;;;2.80;99.90;;;;;;5001577;28;20462;-70
2023/01/27 12:09:33;;;;;;;1999.90;999.90;;;2.50;99.90;;;;;;5007853;28;20464;-70
2023/01/27 12:12:20;;;;;;;1999.90;999.90;;;2.30;99.90;;;;;;5009528;28;20458;-70
2023/01/27 12:14:49;;;;;;;1999.90;999.90;;;2.20;99.90;;;;;;5010439;28;20536;-70
2023/01/27 12:17:23;;;;;;;1999.90;999.90;;;2.00;99.90;;;;;;4997380;28;20443;-70
2023/01/27 12:19:51;;;;;;;1999.90;999.90;;;1.90;99.90;;;;;;5007165;28;20438;-70
2023/01/27 12:22:25;;;;;;;1999.90;999.90;;;1.90;99.90;;;;;;4996302;28;20443;-70
2023/01/27 12:24:57;;;;;;;1999.90;999.90;;;1.80;99.90;;;;;;5000274;28;20473;-69
2023/01/27 12:27:30;;;;;;;1999.90;999.90;;;1.80;99.90;;;;;;5000865;28;20442;-70
2023/01/27 12:30:00;;;;;;;1999.90;999.90;;;1.80;99.90;;;;;;5001606;28;20453;-70
2023/01/27 12:32:37;;;;;;;1999.90;999.90;;;1.80;99.90;;;;;;5001096;28;20454;-68
2023/01/27 12:35:05;;;;;;;1999.90;999.90;;;1.80;99.90;;;;;;4998349;28;20474;-70
2023/01/27 12:37:37;;;;;;;1999.90;999.90;;;1.80;99.90;;;;;;5000361;28;20450;-69
2023/01/27 12:40:07;;;;;;;1999.90;999.90;;;1.80;99.90;;;;;;5001042;28;20534;-70
2023/01/27 12:42:37;;;;;;;1999.90;999.90;;;1.80;99.90;;;;;;5002922;28;20465;-70
2023/01/27 12:45:28;;;;;;;1999.90;999.90;;;1.80;99.90;;;;;;4994439;28;20490;-70
2023/01/27 12:47:57;;;;;;;1999.90;999.90;;;1.70;99.90;;;;;;5003806;28;20457;-70
2023/01/27 12:50:26;;;;;;;1999.90;999.90;;;1.70;99.90;;;;;;5006173;28;20446;-69
2023/01/27 12:53:04;;;;;;;1999.90;999.90;;;1.60;99.90;;;;;;4998625;28;20454;-70
2023/01/27 12:55:33;;;;;;;1999.90;999.90;;;1.70;99.90;;;;;;5001476;28;20511;-70
2023/01/27 12:58:00;;;;;;;1999.90;999.90;;;1.80;99.90;;;;;;4999155;28;20492;-70